Time;durP1;ratioP1;P1;durP2;ratioP2;P2;SDS_P1;SDS_P2;PMS_P1;PMS_P2;Temp;Humidity;BMP_temperature;BMP_pressure;BME280_temperature;BME280_humidity;BME280_pressure;Samples;Min_cycle;Max_cycle;Signal;HPM_P1;HPM_P2
2021/11/19 00:00:54;;;;;;;3.75;1.73;;;20.90;63.20;;;;;;5069435;28;20024;-67
2021/11/19 00:03:21;;;;;;;6.25;1.83;;;20.90;63.40;;;;;;5068833;28;20020;-68
2021/11/19 00:05:49;;;;;;;4.43;1.80;;;20.90;63.60;;;;;;5069661;28;20021;-66
2021/11/19 00:08:25;;;;;;;7.65;2.17;;;20.90;63.70;;;;;;5070613;28;20099;-70
2021/11/19 00:10:53;;;;;;;6.88;2.67;;;20.80;63.60;;;;;;5068468;28;20448;-67
2021/11/19 00:13:20;;;;;;;5.95;2.22;;;20.90;63.80;;;;;;5069265;28;20023;-70
2021/11/19 00:15:47;;;;;;;6.13;1.95;;;20.90;64.20;;;;;;5069388;28;20032;-66
2021/11/19 00:18:13;;;;;;;10.77;2.20;;;20.80;63.90;;;;;;5071025;28;20033;-68
2021/11/19 00:20:40;;;;;;;7.75;3.65;;;20.90;64.00;;;;;;5070384;28;20546;-69
2021/11/19 00:23:07;;;;;;;9.02;2.13;;;20.80;64.00;;;;;;5068259;28;20112;-67
2021/11/19 00:25:35;;;;;;;6.03;2.08;;;20.90;64.10;;;;;;5070073;28;20052;-67
2021/11/19 00:28:02;;;;;;;3.90;2.13;;;20.80;64.10;;;;;;5068751;28;20031;-67
2021/11/19 00:30:31;;;;;;;8.60;2.15;;;20.80;64.10;;;;;;5070703;28;20100;-66
2021/11/19 00:32:58;;;;;;;9.60;3.08;;;20.80;64.10;;;;;;5070359;28;20028;-69
2021/11/19 00:35:25;;;;;;;5.97;2.58;;;20.80;64.20;;;;;;5067927;28;20020;-67
2021/11/19 00:37:54;;;;;;;6.45;3.05;;;20.80;64.20;;;;;;5068923;28;20052;-66
2021/11/19 00:40:40;;;;;;;9.40;2.97;;;20.80;64.20;;;;;;5067360;28;20464;-67
2021/11/19 00:43:07;;;;;;;6.03;2.67;;;20.80;64.20;;;;;;5069861;28;20020;-69
2021/11/19 00:45:35;;;;;;;14.63;4.00;;;20.80;64.30;;;;;;5068432;28;20017;-69
2021/11/19 00:48:04;;;;;;;9.23;2.67;;;20.80;64.30;;;;;;5069524;28;20543;-66
2021/11/19 00:50:36;;;;;;;7.68;2.33;;;20.70;64.30;;;;;;5068835;28;20051;-66
2021/11/19 00:53:03;;;;;;;9.32;2.50;;;20.80;64.30;;;;;;5068742;28;20059;-68
2021/11/19 00:55:31;;;;;;;7.95;2.17;;;20.70;64.30;;;;;;5068658;28;20033;-69
2021/11/19 00:57:58;;;;;;;6.25;2.05;;;20.70;64.30;;;;;;5068474;28;20036;-70
2021/11/19 01:00:31;;;;;;;6.50;1.80;;;20.70;64.30;;;;;;5069152;28;20020;-69
2021/11/19 01:02:57;;;;;;;7.38;2.00;;;20.70;64.20;;;;;;5071079;28;20016;-69
2021/11/19 01:05:25;;;;;;;10.02;2.20;;;20.70;64.20;;;;;;5069339;28;20065;-67
2021/11/19 01:07:51;;;;;;;11.25;2.20;;;20.60;63.90;;;;;;5068228;28;20170;-70
2021/11/19 01:10:23;;;;;;;6.00;1.50;;;20.60;64.00;;;;;;5068792;28;20027;-69
2021/11/19 01:12:50;;;;;;;5.82;1.77;;;20.60;63.90;;;;;;5069254;28;20017;-70
2021/11/19 01:15:35;;;;;;;6.55;2.65;;;20.60;63.90;;;;;;5066916;28;20025;-70
2021/11/19 01:18:17;;;;;;;4.18;1.65;;;20.60;64.70;;;;;;5071242;28;20651;-67
2021/11/19 01:21:17;;;;;;;4.38;1.40;;;20.60;64.10;;;;;;5067196;28;20016;-70
2021/11/19 01:23:44;;;;;;;5.32;1.92;;;20.60;64.20;;;;;;5063234;28;20030;-69
2021/11/19 01:26:20;;;;;;;4.22;1.40;;;20.60;64.30;;;;;;5069005;28;20054;-70
2021/11/19 01:28:51;;;;;;;5.97;1.50;;;20.60;64.30;;;;;;5068606;28;20052;-69
2021/11/19 01:31:24;;;;;;;4.07;1.70;;;20.60;64.40;;;;;;5068832;28;20539;-69
2021/11/19 01:33:51;;;;;;;6.28;1.30;;;20.60;64.50;;;;;;5065129;28;20017;-69
2021/11/19 01:36:19;;;;;;;10.85;1.92;;;20.50;64.60;;;;;;5066940;28;20434;-69
2021/11/19 01:38:47;;;;;;;8.27;1.50;;;20.60;64.80;;;;;;5070469;28;20104;-67
2021/11/19 01:41:18;;;;;;;4.22;1.92;;;20.50;64.70;;;;;;5066798;28;20032;-69
2021/11/19 01:43:46;;;;;;;6.53;1.60;;;20.60;64.80;;;;;;5066244;28;20070;-70
2021/11/19 01:46:22;;;;;;;8.38;2.10;;;20.50;64.80;;;;;;5066874;28;20379;-68
2021/11/19 01:48:51;;;;;;;5.63;2.10;;;20.60;64.80;;;;;;5067984;28;20027;-69
2021/11/19 01:51:47;;;;;;;4.25;1.20;;;20.50;64.80;;;;;;5066813;28;20023;-67
2021/11/19 01:54:19;;;;;;;;;;;20.50;64.90;;;;;;5059377;28;20036;-70
2021/11/19 01:57:00;;;;;;;4.72;1.38;;;20.50;64.90;;;;;;5067861;28;19904;-68
2021/11/19 01:59:38;;;;;;;6.70;1.48;;;20.50;64.90;;;;;;5067794;28;20032;-69
2021/11/19 02:02:12;;;;;;;4.82;1.23;;;20.50;64.90;;;;;;5067949;28;20019;-67
2021/11/19 02:05:01;;;;;;;4.07;1.08;;;20.50;65.00;;;;;;5067684;28;20501;-66
2021/11/19 02:07:34;;;;;;;3.90;1.45;;;20.50;65.00;;;;;;5066275;28;20039;-69
2021/11/19 02:10:28;;;;;;;6.57;2.13;;;20.40;65.00;;;;;;5068391;28;20548;-69
2021/11/19 02:13:06;;;;;;;4.72;1.65;;;20.40;65.10;;;;;;5066666;28;20043;-70
2021/11/19 02:15:38;;;;;;;5.07;1.52;;;20.40;65.10;;;;;;5066151;28;20025;-69
2021/11/19 02:18:11;;;;;;;7.57;3.55;;;20.40;65.10;;;;;;5067887;28;20099;-70
2021/11/19 02:20:43;;;;;;;8.50;1.73;;;20.40;65.10;;;;;;5066029;28;20074;-67
2021/11/19 02:23:28;;;;;;;6.28;1.95;;;20.40;65.10;;;;;;5068357;28;20021;-69
2021/11/19 02:26:06;;;;;;;9.40;1.83;;;20.40;65.00;;;;;;5065386;28;20048;-68
2021/11/19 02:28:35;;;;;;;8.90;2.40;;;20.40;64.90;;;;;;5066164;28;20020;-67
2021/11/19 02:31:14;;;;;;;6.32;1.55;;;20.30;64.70;;;;;;5069056;28;20020;-69
2021/11/19 02:33:43;;;;;;;4.05;1.77;;;20.40;64.50;;;;;;5065180;28;20052;-69
2021/11/19 02:36:13;;;;;;;4.88;2.08;;;20.40;64.40;;;;;;5066836;28;20364;-69
2021/11/19 02:38:42;;;;;;;4.85;1.20;;;20.30;64.30;;;;;;5070571;28;20031;-70
2021/11/19 02:41:09;;;;;;;9.95;2.15;;;20.30;64.40;;;;;;5070599;28;20021;-67
2021/11/19 02:43:43;;;;;;;6.55;1.40;;;20.30;64.40;;;;;;5071134;28;20028;-70
2021/11/19 02:46:20;;;;;;;7.10;2.30;;;20.30;64.50;;;;;;5074159;28;20013;-70
2021/11/19 02:48:47;;;;;;;5.82;1.50;;;20.30;64.50;;;;;;5073747;28;20025;-67
2021/11/19 02:51:15;;;;;;;4.40;1.52;;;20.30;64.60;;;;;;5071037;28;20036;-70
2021/11/19 02:53:45;;;;;;;5.75;1.50;;;20.30;64.60;;;;;;5070886;28;20431;-66
2021/11/19 02:56:13;;;;;;;5.50;1.30;;;20.30;64.60;;;;;;5072621;28;20032;-70
2021/11/19 02:58:43;;;;;;;5.82;1.42;;;20.20;64.60;;;;;;5069868;28;20013;-69
2021/11/19 03:01:13;;;;;;;5.05;1.33;;;20.30;64.70;;;;;;5071723;28;20035;-69
2021/11/19 03:03:44;;;;;;;5.68;1.45;;;20.30;64.70;;;;;;5070813;28;20024;-67
2021/11/19 03:06:10;;;;;;;5.95;2.35;;;20.20;64.70;;;;;;5070443;28;20023;-69
2021/11/19 03:08:37;;;;;;;11.50;2.50;;;20.30;64.80;;;;;;5069755;28;20025;-70
2021/11/19 03:11:05;;;;;;;4.82;1.02;;;20.20;64.80;;;;;;5070350;28;20056;-69
2021/11/19 03:13:35;;;;;;;2.53;1.05;;;20.20;64.80;;;;;;5070410;28;20139;-67
2021/11/19 03:16:03;;;;;;;3.95;1.10;;;20.20;64.70;;;;;;5069134;28;20028;-69
2021/11/19 03:18:30;;;;;;;7.47;1.35;;;20.20;64.70;;;;;;5071629;28;20020;-69
2021/11/19 03:21:00;;;;;;;3.00;0.82;;;20.20;64.60;;;;;;5069470;28;20025;-67
2021/11/19 03:23:28;;;;;;;4.95;1.42;;;20.20;64.60;;;;;;5071046;28;20029;-69
2021/11/19 03:25:55;;;;;;;6.43;1.88;;;20.20;64.50;;;;;;5069532;28;20040;-69
2021/11/19 03:28:24;;;;;;;20.58;3.08;;;20.10;64.40;;;;;;5070508;28;20109;-66
2021/11/19 03:30:53;;;;;;;6.28;1.58;;;20.20;64.50;;;;;;5072560;28;21034;-68
2021/11/19 03:33:24;;;;;;;9.73;2.05;;;20.20;64.40;;;;;;5070384;28;20542;-67
2021/11/19 03:35:51;;;;;;;6.70;1.20;;;20.20;64.40;;;;;;5069720;28;20028;-72
2021/11/19 03:38:20;;;;;;;7.78;1.55;;;20.20;64.40;;;;;;5070145;28;20021;-69
2021/11/19 03:40:48;;;;;;;5.88;1.30;;;20.20;64.30;;;;;;5071261;28;20395;-67
2021/11/19 03:43:22;;;;;;;4.53;1.25;;;20.10;64.30;;;;;;5069365;28;20020;-68
2021/11/19 03:45:52;;;;;;;9.07;1.40;;;20.10;64.30;;;;;;5071706;28;20024;-67
2021/11/19 03:48:20;;;;;;;6.18;1.40;;;20.20;64.50;;;;;;5069978;28;20017;-65
2021/11/19 03:51:13;;;;;;;4.82;1.30;;;20.10;64.40;;;;;;5068958;28;20021;-67
2021/11/19 03:53:39;;;;;;;7.78;1.73;;;20.10;64.40;;;;;;5070017;28;20418;-69
2021/11/19 03:56:06;;;;;;;5.55;1.35;;;20.10;64.60;;;;;;5068476;28;20024;-67
2021/11/19 03:58:35;;;;;;;11.15;3.88;;;20.10;64.90;;;;;;5071215;28;20135;-68
2021/11/19 04:01:12;;;;;;;13.60;9.10;;;20.10;64.90;;;;;;5069456;28;20595;-67
2021/11/19 04:03:39;;;;;;;10.02;6.13;;;20.10;65.60;;;;;;5069804;28;20108;-66
2021/11/19 04:06:06;;;;;;;8.82;4.13;;;20.10;64.90;;;;;;5070710;28;20039;-65
2021/11/19 04:08:34;;;;;;;11.43;4.72;;;20.10;64.80;;;;;;5068964;28;20025;-67
2021/11/19 04:11:01;;;;;;;10.10;4.32;;;20.10;64.80;;;;;;5071526;28;20575;-67
2021/11/19 04:13:27;;;;;;;13.43;5.78;;;20.10;64.80;;;;;;5068964;28;20029;-68
2021/11/19 04:15:59;;;;;;;28.45;11.52;;;20.10;64.70;;;;;;5069795;28;20395;-69
2021/11/19 04:18:26;;;;;;;41.53;19.90;;;20.10;64.70;;;;;;5069060;28;20485;-68
2021/11/19 04:20:54;;;;;;;38.03;17.95;;;20.10;64.60;;;;;;5069158;28;20422;-73
2021/11/19 04:23:22;;;;;;;40.40;17.55;;;20.10;64.60;;;;;;5071939;28;20032;-68
2021/11/19 04:25:49;;;;;;;29.90;15.02;;;20.10;64.60;;;;;;5068356;28;20036;-67
2021/11/19 04:28:19;;;;;;;20.58;9.43;;;20.10;64.50;;;;;;5069908;28;20024;-67
2021/11/19 04:30:48;;;;;;;14.45;7.03;;;20.10;64.50;;;;;;5068269;28;20013;-68
2021/11/19 04:33:18;;;;;;;15.98;5.30;;;20.10;64.40;;;;;;5068732;28;20024;-67
2021/11/19 04:35:46;;;;;;;9.07;4.72;;;20.10;64.40;;;;;;5067021;28;20036;-67
2021/11/19 04:38:14;;;;;;;9.52;3.63;;;20.10;64.40;;;;;;5068051;28;20479;-69
2021/11/19 04:40:42;;;;;;;8.50;3.40;;;20.10;64.30;;;;;;5069252;28;20066;-69
2021/11/19 04:43:10;;;;;;;7.68;2.80;;;20.10;64.30;;;;;;5065933;28;20028;-71
2021/11/19 04:45:38;;;;;;;10.70;2.17;;;20.10;64.30;;;;;;5065766;28;20028;-67
2021/11/19 04:48:08;;;;;;;5.85;2.97;;;20.10;64.30;;;;;;5067294;28;20455;-67
2021/11/19 04:50:39;;;;;;;8.38;2.60;;;20.10;64.40;;;;;;5067663;28;20067;-64
2021/11/19 04:53:08;;;;;;;6.30;2.22;;;20.10;64.30;;;;;;5068904;28;20036;-66
2021/11/19 04:55:34;;;;;;;7.97;1.90;;;20.10;64.30;;;;;;5066363;28;20087;-66
2021/11/19 04:58:01;;;;;;;5.82;3.00;;;20.10;64.30;;;;;;5067309;28;20025;-67
2021/11/19 05:00:36;;;;;;;8.43;1.95;;;20.10;64.30;;;;;;5065591;28;20028;-66
2021/11/19 05:03:04;;;;;;;;;;;20.10;64.30;;;;;;5068665;28;20035;-68
2021/11/19 05:05:30;;;;;;;7.30;1.95;;;20.10;64.20;;;;;;5063070;28;19916;-66
2021/11/19 05:07:58;;;;;;;6.10;1.90;;;20.10;64.10;;;;;;5066584;28;20025;-66
2021/11/19 05:10:25;;;;;;;6.50;2.28;;;20.20;64.10;;;;;;5067240;28;20031;-66
2021/11/19 05:12:55;;;;;;;7.45;1.60;;;20.20;64.10;;;;;;5065069;28;20016;-66
2021/11/19 05:15:21;;;;;;;8.32;1.48;;;20.20;64.00;;;;;;5068287;28;20052;-66
2021/11/19 05:17:48;;;;;;;8.52;2.00;;;20.20;63.90;;;;;;5066883;28;20327;-66
2021/11/19 05:20:17;;;;;;;7.32;1.58;;;20.20;63.80;;;;;;5066885;28;20040;-66
2021/11/19 05:22:43;;;;;;;7.05;2.00;;;20.20;63.70;;;;;;5064383;28;20028;-66
2021/11/19 05:25:12;;;;;;;5.20;2.03;;;20.20;63.60;;;;;;5066466;28;20036;-68
2021/11/19 05:27:39;;;;;;;7.07;1.50;;;20.30;63.60;;;;;;5067629;28;20107;-66
2021/11/19 05:30:07;;;;;;;5.55;1.75;;;20.20;63.50;;;;;;5067419;28;20099;-68
2021/11/19 05:32:34;;;;;;;3.65;1.48;;;20.30;63.60;;;;;;5067585;28;20050;-66
2021/11/19 05:35:00;;;;;;;6.13;2.97;;;20.30;63.50;;;;;;5066196;28;20484;-66
2021/11/19 05:37:27;;;;;;;6.00;1.40;;;20.30;63.40;;;;;;5068843;28;20487;-66
2021/11/19 05:39:53;;;;;;;7.03;1.60;;;20.30;63.20;;;;;;5066578;28;20541;-67
2021/11/19 05:42:20;;;;;;;7.75;2.25;;;20.30;62.90;;;;;;5068053;28;20033;-66
2021/11/19 05:44:47;;;;;;;3.13;1.02;;;20.40;62.70;;;;;;5068166;28;20033;-66
2021/11/19 05:47:13;;;;;;;5.40;2.05;;;20.40;62.50;;;;;;5067589;28;20475;-66
2021/11/19 05:49:42;;;;;;;4.65;1.45;;;20.40;62.30;;;;;;5067849;28;20017;-66
2021/11/19 05:52:10;;;;;;;7.82;1.70;;;20.40;62.10;;;;;;5068273;28;20375;-66
2021/11/19 05:54:38;;;;;;;6.22;1.48;;;20.40;62.00;;;;;;5068816;28;20027;-66
2021/11/19 05:57:07;;;;;;;5.00;1.95;;;20.50;61.90;;;;;;5066650;28;20016;-66
2021/11/19 05:59:35;;;;;;;8.25;1.80;;;20.50;61.80;;;;;;5068061;28;20034;-66
2021/11/19 06:02:08;;;;;;;7.82;1.70;;;20.50;61.70;;;;;;5067308;28;20074;-66
2021/11/19 06:04:35;;;;;;;6.97;1.67;;;20.50;61.70;;;;;;5067842;28;20025;-66
2021/11/19 06:07:02;;;;;;;5.30;1.25;;;20.60;61.50;;;;;;5067584;28;20025;-67
2021/11/19 06:09:31;;;;;;;6.88;2.60;;;20.60;61.20;;;;;;5068147;28;20415;-65
2021/11/19 06:12:16;;;;;;;7.28;1.70;;;20.60;61.10;;;;;;5067244;28;21403;-66
2021/11/19 06:14:49;;;;;;;6.07;1.67;;;20.60;60.80;;;;;;5064447;28;20040;-66
2021/11/19 06:17:30;;;;;;;9.45;2.65;;;20.60;60.60;;;;;;5067664;28;20035;-66
2021/11/19 06:20:01;;;;;;;5.80;2.15;;;20.70;60.30;;;;;;5067615;28;20502;-65
2021/11/19 06:22:37;;;;;;;7.22;1.42;;;20.70;60.00;;;;;;5064768;28;20025;-66
2021/11/19 06:25:06;;;;;;;5.88;1.50;;;20.70;59.80;;;;;;5068902;28;20517;-66
2021/11/19 06:27:36;;;;;;;10.68;1.77;;;20.70;59.50;;;;;;5066836;28;20031;-66
2021/11/19 06:30:06;;;;;;;5.18;1.65;;;20.80;59.10;;;;;;5066715;28;20074;-66
2021/11/19 06:32:33;;;;;;;9.18;2.30;;;20.80;58.80;;;;;;5068665;28;20009;-68
2021/11/19 06:35:00;;;;;;;5.65;2.17;;;20.80;58.60;;;;;;5066886;28;20037;-68
2021/11/19 06:37:27;;;;;;;7.18;1.70;;;20.80;58.40;;;;;;5067924;28;20028;-68
2021/11/19 06:39:55;;;;;;;4.03;1.42;;;20.80;58.20;;;;;;5066364;28;20059;-69
2021/11/19 06:42:22;;;;;;;4.57;1.67;;;20.90;58.00;;;;;;5069898;28;20109;-66
2021/11/19 06:44:49;;;;;;;5.55;1.92;;;20.90;57.80;;;;;;5067231;28;20056;-67
2021/11/19 06:47:17;;;;;;;3.55;1.17;;;20.90;57.70;;;;;;5066956;28;20017;-66
2021/11/19 06:49:45;;;;;;;7.75;1.40;;;21.00;57.70;;;;;;5069076;28;20020;-67
2021/11/19 06:52:11;;;;;;;7.38;1.80;;;21.00;57.20;;;;;;5066542;28;20020;-69
2021/11/19 06:54:39;;;;;;;5.68;1.40;;;21.00;56.60;;;;;;5067666;28;20066;-69
2021/11/19 06:57:06;;;;;;;6.47;1.48;;;21.00;56.40;;;;;;5066448;28;20048;-70
2021/11/19 06:59:33;;;;;;;3.58;1.08;;;21.10;56.30;;;;;;5067552;28;20032;-69
2021/11/19 07:01:59;;;;;;;5.45;1.45;;;21.10;56.20;;;;;;5068615;28;20036;-67
2021/11/19 07:04:26;;;;;;;6.72;1.35;;;21.10;56.10;;;;;;5067101;28;20103;-67
2021/11/19 07:06:52;;;;;;;3.90;1.30;;;21.10;56.10;;;;;;5068681;28;20032;-67
2021/11/19 07:09:20;;;;;;;5.43;1.50;;;21.10;56.20;;;;;;5066606;28;20025;-68
2021/11/19 07:11:47;;;;;;;3.58;1.27;;;21.10;56.40;;;;;;5067839;28;20440;-69
2021/11/19 07:14:15;;;;;;;4.72;1.40;;;21.10;56.50;;;;;;5066659;28;20044;-67
2021/11/19 07:16:42;;;;;;;3.50;1.00;;;21.20;56.70;;;;;;5067911;28;20039;-69
2021/11/19 07:19:09;;;;;;;7.68;1.65;;;21.20;56.80;;;;;;5067162;28;20052;-69
2021/11/19 07:21:37;;;;;;;3.40;1.25;;;21.20;56.80;;;;;;5067611;28;20108;-68
2021/11/19 07:24:05;;;;;;;8.13;1.55;;;21.20;56.80;;;;;;5070979;28;20349;-70
2021/11/19 07:26:32;;;;;;;3.30;1.10;;;21.20;56.80;;;;;;5069667;28;20056;-69
2021/11/19 07:28:59;;;;;;;6.47;1.75;;;21.30;56.90;;;;;;5072244;28;20140;-69
2021/11/19 07:31:26;;;;;;;5.30;1.42;;;21.30;56.90;;;;;;5068374;28;20116;-69
2021/11/19 07:33:52;;;;;;;5.72;1.48;;;21.30;56.80;;;;;;5072124;28;20017;-70
2021/11/19 07:36:21;;;;;;;6.10;2.53;;;21.30;56.70;;;;;;5070670;28;20029;-69
2021/11/19 07:38:48;;;;;;;6.60;1.50;;;21.40;56.60;;;;;;5071027;28;20025;-70
2021/11/19 07:41:17;;;;;;;2.10;0.82;;;21.40;56.50;;;;;;5069225;28;20020;-69
2021/11/19 07:43:43;;;;;;;2.83;1.30;;;21.40;56.10;;;;;;5070424;28;20115;-70
2021/11/19 07:46:13;;;;;;;8.23;2.05;;;21.50;55.90;;;;;;5070614;28;20028;-69
2021/11/19 07:48:41;;;;;;;5.63;1.45;;;21.50;55.40;;;;;;5069824;28;20540;-69
2021/11/19 07:51:15;;;;;;;7.38;1.10;;;21.60;55.20;;;;;;5070577;28;20028;-69
2021/11/19 07:53:43;;;;;;;4.35;1.17;;;21.60;54.80;;;;;;5070067;28;20013;-69
2021/11/19 07:56:11;;;;;;;4.90;1.38;;;21.70;55.20;;;;;;5069736;28;20024;-69
2021/11/19 07:58:38;;;;;;;4.47;1.25;;;21.70;54.10;;;;;;5067391;28;20475;-71
2021/11/19 08:01:06;;;;;;;5.97;1.08;;;21.70;53.80;;;;;;5069737;28;20032;-69
2021/11/19 08:03:32;;;;;;;7.50;1.70;;;21.80;53.60;;;;;;5070073;28;20025;-70
2021/11/19 08:06:02;;;;;;;4.82;1.00;;;21.80;53.50;;;;;;5068617;28;20498;-70
2021/11/19 08:08:30;;;;;;;6.35;1.63;;;21.90;53.30;;;;;;5069433;28;20484;-70
2021/11/19 08:10:57;;;;;;;3.17;1.25;;;21.90;53.10;;;;;;5067936;28;20103;-70
2021/11/19 08:13:24;;;;;;;4.45;1.48;;;22.00;52.80;;;;;;5069673;28;20041;-69
2021/11/19 08:15:50;;;;;;;6.78;1.17;;;22.00;52.60;;;;;;5069716;28;20047;-70
2021/11/19 08:18:21;;;;;;;4.25;1.10;;;22.10;52.30;;;;;;5069371;28;20093;-67
2021/11/19 08:20:49;;;;;;;2.53;1.00;;;22.10;52.20;;;;;;5069211;28;20020;-70
2021/11/19 08:23:20;;;;;;;5.35;1.20;;;22.20;52.40;;;;;;5069426;28;20030;-70
2021/11/19 08:25:47;;;;;;;6.13;1.40;;;22.20;52.50;;;;;;5070121;28;20042;-70
2021/11/19 08:28:15;;;;;;;8.95;2.28;;;22.30;52.50;;;;;;5067916;28;20078;-70
2021/11/19 08:30:45;;;;;;;6.15;1.63;;;22.30;52.50;;;;;;5069336;28;20020;-70
2021/11/19 08:33:13;;;;;;;7.32;2.17;;;22.40;52.50;;;;;;5068467;28;20574;-70
2021/11/19 08:35:42;;;;;;;5.45;1.70;;;22.40;52.40;;;;;;5070035;28;20080;-69
2021/11/19 08:38:13;;;;;;;4.95;1.52;;;22.50;52.30;;;;;;5069751;28;20032;-70
2021/11/19 08:40:44;;;;;;;4.75;1.52;;;22.50;52.20;;;;;;5068662;28;20117;-69
2021/11/19 08:43:18;;;;;;;6.85;1.60;;;22.60;52.20;;;;;;5068883;28;20025;-70
2021/11/19 08:45:45;;;;;;;6.40;1.93;;;22.60;51.70;;;;;;5069693;28;20130;-70
2021/11/19 08:48:12;;;;;;;4.35;1.23;;;22.60;51.30;;;;;;5071109;28;20814;-70
2021/11/19 08:50:40;;;;;;;3.72;1.13;;;22.70;51.00;;;;;;5068690;28;20025;-70
2021/11/19 08:53:10;;;;;;;4.45;1.15;;;22.70;50.70;;;;;;5069085;28;20383;-70
2021/11/19 08:55:44;;;;;;;7.05;2.35;;;22.80;50.50;;;;;;5070832;28;20074;-70
2021/11/19 08:58:13;;;;;;;5.20;1.23;;;22.80;50.10;;;;;;5068577;28;20359;-70
2021/11/19 09:00:41;;;;;;;6.40;1.42;;;22.80;49.90;;;;;;5068699;28;20020;-70
2021/11/19 09:03:09;;;;;;;5.40;1.95;;;22.90;49.70;;;;;;5068536;28;20035;-70
2021/11/19 09:05:41;;;;;;;9.05;2.38;;;22.90;50.30;;;;;;5068980;28;20467;-69
2021/11/19 09:08:11;;;;;;;5.03;2.28;;;22.90;49.70;;;;;;5068619;28;20017;-70
2021/11/19 09:10:39;;;;;;;6.18;1.38;;;23.00;50.00;;;;;;5067841;28;20028;-70
2021/11/19 09:13:07;;;;;;;8.13;1.70;;;23.00;50.40;;;;;;5069691;28;20543;-70
2021/11/19 09:15:34;;;;;;;5.05;1.30;;;23.10;50.60;;;;;;5067673;28;20036;-70
2021/11/19 09:18:24;;;;;;;8.82;2.47;;;23.10;51.30;;;;;;5068068;28;20056;-70
2021/11/19 09:21:29;;;;;;;4.25;1.75;;;23.10;51.80;;;;;;5066670;28;20070;-71
2021/11/19 09:24:02;;;;;;;6.22;2.80;;;23.20;52.00;;;;;;5070460;28;20020;-70
2021/11/19 09:26:40;;;;;;;9.27;1.63;;;23.30;52.40;;;;;;5069096;28;20062;-67
2021/11/19 09:29:11;;;;;;;4.80;1.40;;;23.30;52.50;;;;;;5067410;28;20017;-70
2021/11/19 09:31:39;;;;;;;7.32;2.53;;;23.40;52.50;;;;;;5068430;28;20391;-70
2021/11/19 09:34:07;;;;;;;9.10;1.77;;;23.50;52.30;;;;;;5066967;28;20063;-70
2021/11/19 09:36:35;;;;;;;6.75;1.88;;;23.50;52.00;;;;;;5067072;28;20025;-70
2021/11/19 09:39:04;;;;;;;9.23;3.28;;;23.60;51.70;;;;;;5066871;28;20067;-70
2021/11/19 09:41:56;;;;;;;7.90;2.53;;;23.60;51.60;;;;;;5067537;28;20070;-70
2021/11/19 09:44:52;;;;;;;10.82;2.03;;;23.70;51.80;;;;;;5069052;28;20024;-70
2021/11/19 09:47:49;;;;;;;7.05;1.65;;;23.70;51.10;;;;;;5067666;28;20025;-70
2021/11/19 09:50:24;;;;;;;6.63;1.70;;;23.80;50.70;;;;;;5066870;28;20043;-70
2021/11/19 09:53:03;;;;;;;7.93;1.48;;;23.80;50.80;;;;;;5067789;28;20028;-70
2021/11/19 09:55:55;;;;;;;6.88;2.30;;;23.90;50.80;;;;;;5065996;28;20568;-70
2021/11/19 09:58:46;;;;;;;6.63;1.52;;;23.90;50.90;;;;;;5068010;28;20020;-70
2021/11/19 10:01:31;;;;;;;5.68;1.65;;;24.00;51.30;;;;;;5069752;28;20032;-70
2021/11/19 10:04:16;;;;;;;5.50;1.52;;;24.00;51.10;;;;;;5065224;28;20070;-71
2021/11/19 10:06:59;;;;;;;4.53;1.95;;;24.10;51.00;;;;;;5067127;28;20063;-71
2021/11/19 10:10:02;;;;;;;5.50;1.48;;;24.10;51.10;;;;;;5068104;28;20059;-70
2021/11/19 10:12:55;;;;;;;3.30;1.42;;;24.10;51.30;;;;;;5065134;28;20025;-70
2021/11/19 10:15:42;;;;;;;5.95;2.13;;;24.20;51.20;;;;;;5069843;28;20692;-69
2021/11/19 10:18:19;;;;;;;5.65;1.67;;;24.20;51.00;;;;;;5067591;28;20031;-70
2021/11/19 10:20:53;;;;;;;6.30;1.25;;;24.30;50.90;;;;;;5066964;28;20073;-70
2021/11/19 10:23:26;;;;;;;4.63;1.63;;;24.30;50.70;;;;;;5068613;28;20028;-67
2021/11/19 10:26:07;;;;;;;4.07;1.40;;;24.30;50.60;;;;;;5067832;28;20098;-68
2021/11/19 10:28:49;;;;;;;3.97;1.92;;;24.40;50.50;;;;;;5065367;28;20055;-67
2021/11/19 10:31:22;;;;;;;8.02;2.15;;;24.40;50.20;;;;;;5068202;28;20024;-67
2021/11/19 10:33:58;;;;;;;3.30;0.98;;;24.50;50.30;;;;;;5066214;28;20028;-67
2021/11/19 10:36:33;;;;;;;5.20;1.60;;;24.50;49.80;;;;;;5068091;28;20033;-67
2021/11/19 10:39:59;;;;;;;4.75;1.30;;;24.60;49.50;;;;;;5068422;28;20023;-67
2021/11/19 10:42:40;;;;;;;4.07;1.37;;;24.60;48.90;;;;;;5043150;28;20022;-66
2021/11/19 10:45:22;;;;;;;3.53;1.25;;;24.60;48.80;;;;;;5044350;28;20025;-67
2021/11/19 10:48:10;;;;;;;3.85;0.95;;;24.70;48.60;;;;;;5060250;28;20032;-69
2021/11/19 10:50:55;;;;;;;2.88;1.70;;;24.70;48.50;;;;;;5064166;28;20028;-66
2021/11/19 10:53:43;;;;;;;5.80;1.73;;;24.70;48.40;;;;;;5066839;28;20082;-74
2021/11/19 10:56:53;;;;;;;4.50;1.55;;;24.80;48.60;;;;;;5065925;28;20387;-71
2021/11/19 10:59:20;;;;;;;4.90;1.25;;;24.90;48.60;;;;;;5067294;28;20043;-71
2021/11/19 11:02:08;;;;;;;6.68;1.35;;;24.90;48.30;;;;;;5071000;28;20150;-66
2021/11/19 11:04:56;;;;;;;3.72;1.15;;;25.00;48.50;;;;;;5068632;28;20039;-70
2021/11/19 11:07:39;;;;;;;4.82;1.33;;;25.00;47.50;;;;;;5071274;28;20425;-67
2021/11/19 11:10:14;;;;;;;2.80;1.20;;;25.10;46.50;;;;;;5072459;28;20028;-67
2021/11/19 11:12:44;;;;;;;6.53;1.38;;;25.10;46.60;;;;;;5071477;28;20031;-65
2021/11/19 11:15:31;;;;;;;5.28;2.22;;;25.20;46.30;;;;;;5070559;28;20032;-67
2021/11/19 11:18:18;;;;;;;9.90;1.95;;;25.20;45.80;;;;;;5071813;28;20023;-69
2021/11/19 11:20:55;;;;;;;3.60;1.65;;;25.30;45.70;;;;;;5068627;28;20491;-71
2021/11/19 11:23:52;;;;;;;5.05;1.75;;;25.30;45.30;;;;;;5071388;28;20082;-67
2021/11/19 11:26:23;;;;;;;8.02;1.80;;;25.30;45.00;;;;;;5068912;28;20044;-67
2021/11/19 11:29:00;;;;;;;4.68;1.70;;;25.40;44.90;;;;;;5070169;28;20025;-67
2021/11/19 11:31:57;;;;;;;6.43;1.60;;;25.50;44.60;;;;;;5070875;28;20115;-67
2021/11/19 11:34:52;;;;;;;6.50;1.30;;;25.50;44.40;;;;;;5069741;28;20024;-67
2021/11/19 11:37:24;;;;;;;5.45;1.30;;;25.50;44.10;;;;;;5060495;28;20036;-68
2021/11/19 11:40:08;;;;;;;5.82;1.38;;;25.40;44.10;;;;;;5069553;28;20087;-66
2021/11/19 11:42:42;;;;;;;3.72;1.42;;;25.50;43.90;;;;;;5071117;28;20501;-67
2021/11/19 11:45:23;;;;;;;6.22;2.33;;;25.50;44.00;;;;;;5071646;28;20054;-69
2021/11/19 11:47:52;;;;;;;2.90;1.17;;;25.50;44.10;;;;;;5069146;28;20021;-66
2021/11/19 11:50:51;;;;;;;3.50;1.30;;;25.60;44.00;;;;;;5071067;28;20573;-67
2021/11/19 11:53:26;;;;;;;3.47;1.00;;;25.60;43.90;;;;;;5033542;28;20487;-67
2021/11/19 11:56:19;;;;;;;3.03;1.25;;;25.60;43.80;;;;;;5069725;28;20045;-67
2021/11/19 11:59:03;;;;;;;7.20;1.52;;;25.60;43.70;;;;;;5068394;28;20051;-67
2021/11/19 12:02:00;;;;;;;5.35;1.35;;;25.70;44.20;;;;;;5068757;28;20028;-67
2021/11/19 12:04:54;;;;;;;4.35;1.33;;;25.70;44.80;;;;;;5068901;28;20024;-69
2021/11/19 12:07:48;;;;;;;3.42;1.02;;;25.70;44.80;;;;;;5069630;28;20055;-71
2021/11/19 12:10:45;;;;;;;3.55;1.00;;;25.70;45.00;;;;;;5070751;28;20234;-69
2021/11/19 12:13:27;;;;;;;3.70;1.17;;;25.70;45.20;;;;;;5068823;28;20033;-67
2021/11/19 12:16:06;;;;;;;3.13;0.93;;;25.70;45.70;;;;;;5070905;28;20395;-68
2021/11/19 12:19:10;;;;;;;3.38;1.80;;;25.70;45.70;;;;;;5071516;28;20096;-70
2021/11/19 12:22:06;;;;;;;4.53;1.27;;;25.80;46.20;;;;;;5068524;28;20541;-68
2021/11/19 12:25:14;;;;;;;2.33;1.40;;;25.80;46.20;;;;;;5050061;28;20605;-68
2021/11/19 12:27:43;;;;;;;2.63;1.08;;;25.80;46.40;;;;;;5026677;28;20056;-67
2021/11/19 12:30:15;;;;;;;2.72;1.15;;;25.80;46.60;;;;;;5068444;28;20004;-68
2021/11/19 12:32:45;;;;;;;6.50;1.45;;;25.80;46.50;;;;;;5070358;28;20027;-67
2021/11/19 12:35:14;;;;;;;4.93;1.45;;;25.90;46.60;;;;;;5068767;28;20033;-67
2021/11/19 12:38:08;;;;;;;4.72;1.70;;;25.90;46.70;;;;;;5070327;28;20120;-66
2021/11/19 12:40:48;;;;;;;6.07;1.40;;;25.90;46.50;;;;;;5067902;28;20043;-68
2021/11/19 12:43:29;;;;;;;3.38;1.30;;;25.90;46.00;;;;;;5067593;28;20371;-69
2021/11/19 12:46:34;;;;;;;4.72;1.13;;;25.90;46.10;;;;;;5068866;28;20021;-67
2021/11/19 12:49:22;;;;;;;7.18;1.48;;;25.90;46.00;;;;;;5068829;28;20498;-67
2021/11/19 12:52:22;;;;;;;8.70;2.15;;;25.90;46.00;;;;;;5067942;28;20102;-67
2021/11/19 12:55:27;;;;;;;4.13;0.93;;;25.90;45.70;;;;;;5070062;28;20032;-67
2021/11/19 12:58:00;;;;;;;4.57;1.10;;;25.90;45.60;;;;;;5067244;28;20025;-66
2021/11/19 13:00:36;;;;;;;6.25;1.17;;;25.90;45.70;;;;;;5067689;28;20035;-67
2021/11/19 13:03:24;;;;;;;2.08;0.85;;;25.90;45.60;;;;;;5070049;28;20035;-66
2021/11/19 13:06:24;;;;;;;3.83;0.95;;;25.90;45.50;;;;;;5068635;28;20028;-64
2021/11/19 13:08:58;;;;;;;7.82;2.40;;;25.90;45.50;;;;;;5066027;28;20021;-67
2021/11/19 13:11:33;;;;;;;6.03;1.38;;;25.90;45.30;;;;;;5066929;28;20032;-65
2021/11/19 13:14:24;;;;;;;5.53;1.40;;;25.90;45.40;;;;;;5067208;28;20424;-65
2021/11/19 13:16:54;;;;;;;3.25;1.00;;;25.90;45.60;;;;;;5067000;28;20068;-64
2021/11/19 13:19:29;;;;;;;5.68;1.00;;;26.00;45.40;;;;;;5067753;28;20099;-67